Mystic Whaler — WCT9937 — position and weather

sailwx.info

Track history (hours):
 
Tides and Currents Weather Stations Pressure Air Temp Water Temp Dewpoint Dewpoint Depression Visibility Wind Speed Wind Dir Waves Ship Positions

Mystic Whaler (United States)

Ship's website: http://www.mysticwhalercruises.com/

Owner: MYSTIC WHALER CRUISES INC, MYSTIC, CT. More information available from US FCC via Universal Licensing System and Coast Guard Vessel Documentation Center.

Last reported at 2017-Jul-19 08:28 UTC. Time now 2017-Jul-28 06:38 UTC.
Position N 40°43' W 074°03'.
Warning: this ship's position is 8 days out of date.

Length 31 m; draft 1.8 m.

Type: Sailing vessel. MMSI: 367048590.

Date/timePositionNaut miles runAvg speedWind from/ knotsBaromVisibWave heightAir tempDewpointWater temp
2017-Jul-19 08:28N 40°43' W 074°03'0 0.0
2017-Jul-19 07:58N 40°43' W 074°03'0 0.0
2017-Jul-19 07:28N 40°43' W 074°03'0 0.0
2017-Jul-19 06:58N 40°43' W 074°03'0 0.0
2017-Jul-19 06:28N 40°43' W 074°03'0 0.0
2017-Jul-19 05:58N 40°43' W 074°03'0 0.0
2017-Jul-19 05:28N 40°43' W 074°03'0 0.0
2017-Jul-19 04:58N 40°43' W 074°03'0 0.0
2017-Jul-19 04:28N 40°43' W 074°03'0 0.0
2017-Jul-19 03:58N 40°43' W 074°03'0 0.0
2017-Jul-19 03:28N 40°43' W 074°03'0 0.0
2017-Jul-19 02:58N 40°43' W 074°03'0 0.2
2017-Jul-19 02:29N 40°43' W 074°02'0 0.1
2017-Jul-19 02:00N 40°43' W 074°02'0 0.0
2017-Jul-19 01:30N 40°43' W 074°02'0 0.0
2017-Jul-19 00:58N 40°43' W 074°02'0 0.0
2017-Jul-19 00:28N 40°43' W 074°02'0 0.2
2017-Jul-18 23:58N 40°43' W 074°03'0 0.4
2017-Jul-18 23:30N 40°43' W 074°02'0 0.5
2017-Jul-18 23:00N 40°42' W 074°02'0 0.8
2017-Jul-18 22:28N 40°43' W 074°03'0 0.0
2017-Jul-18 21:58N 40°43' W 074°03'0 0.0
2017-Jul-18 21:28N 40°43' W 074°03'0 0.0
2017-Jul-18 20:58N 40°43' W 074°03'0 0.0
2017-Jul-18 20:30N 40°43' W 074°03'0 0.0
2017-Jul-18 20:00N 40°43' W 074°03'0 0.0
2017-Jul-18 19:30N 40°43' W 074°03'0 0.0
2017-Jul-18 19:00N 40°43' W 074°03'0 0.0
2017-Jul-18 18:30N 40°43' W 074°03'0 0.0
2017-Jul-18 18:00N 40°43' W 074°03'0 0.2
2017-Jul-18 17:29N 40°43' W 074°02'4 8.9
2017-Jul-18 17:00N 40°38' W 074°03'14 0.7
2017-Jul-17 22:48N 40°25' W 074°02'0 0.3
2017-Jul-17 22:30N 40°25' W 074°02'1 1.2
2017-Jul-17 22:00N 40°25' W 074°01'4 5.3
2017-Jul-17 21:14N 40°28' W 073°57'101 4.2
2017-Jul-16 21:12N 39°02' W 075°06'2813.1
2017-Jul-16 19:02N 39°24' W 075°29'0 5.3
2017-Jul-16 19:00N 39°24' W 075°29'5 9.8
2017-Jul-16 18:30N 39°28' W 075°33'510.2
2017-Jul-16 18:00N 39°33' W 075°33'611.6
2017-Jul-16 17:30N 39°33' W 075°40'613.0
2017-Jul-16 17:00N 39°32' W 075°49'611.0
2017-Jul-16 16:30N 39°30' W 075°55'611.7
2017-Jul-16 15:58N 39°26' W 076°01'7 0.1
2017-Jul-14 14:22N 39°22' W 075°53'  
Track history (hours):
 
Tides and Currents Weather Stations Pressure Air Temp Water Temp Dewpoint Dewpoint Depression Visibility Wind Speed Wind Dir Waves Ship Positions

Mystic Whaler (United States)

Ship's website: http://www.mysticwhalercruises.com/

Owner: MYSTIC WHALER CRUISES INC, MYSTIC, CT. More information available from US FCC via Universal Licensing System and Coast Guard Vessel Documentation Center.

Last reported at 2017-Jul-19 08:28 UTC. Time now 2017-Jul-28 06:38 UTC.
Position N 40°43' W 074°03'.
Warning: this ship's position is 8 days out of date.

Length 31 m; draft 1.8 m.

Type: Sailing vessel. MMSI: 367048590.

Date/timePositionNaut miles runAvg speedWind from/ knotsBaromVisibWave heightAir tempDewpointWater temp
2017-Jul-19 08:28N 40°43' W 074°03'0 0.0
2017-Jul-19 07:58N 40°43' W 074°03'0 0.0
2017-Jul-19 07:28N 40°43' W 074°03'0 0.0
2017-Jul-19 06:58N 40°43' W 074°03'0 0.0
2017-Jul-19 06:28N 40°43' W 074°03'0 0.0
2017-Jul-19 05:58N 40°43' W 074°03'0 0.0
2017-Jul-19 05:28N 40°43' W 074°03'0 0.0
2017-Jul-19 04:58N 40°43' W 074°03'0 0.0
2017-Jul-19 04:28N 40°43' W 074°03'0 0.0
2017-Jul-19 03:58N 40°43' W 074°03'0 0.0
2017-Jul-19 03:28N 40°43' W 074°03'0 0.0
2017-Jul-19 02:58N 40°43' W 074°03'0 0.2
2017-Jul-19 02:29N 40°43' W 074°02'0 0.1
2017-Jul-19 02:00N 40°43' W 074°02'0 0.0
2017-Jul-19 01:30N 40°43' W 074°02'0 0.0
2017-Jul-19 00:58N 40°43' W 074°02'0 0.0
2017-Jul-19 00:28N 40°43' W 074°02'0 0.2
2017-Jul-18 23:58N 40°43' W 074°03'0 0.4
2017-Jul-18 23:30N 40°43' W 074°02'0 0.5
2017-Jul-18 23:00N 40°42' W 074°02'0 0.8
2017-Jul-18 22:28N 40°43' W 074°03'0 0.0
2017-Jul-18 21:58N 40°43' W 074°03'0 0.0
2017-Jul-18 21:28N 40°43' W 074°03'0 0.0
2017-Jul-18 20:58N 40°43' W 074°03'0 0.0
2017-Jul-18 20:30N 40°43' W 074°03'0 0.0
2017-Jul-18 20:00N 40°43' W 074°03'0 0.0
2017-Jul-18 19:30N 40°43' W 074°03'0 0.0
2017-Jul-18 19:00N 40°43' W 074°03'0 0.0
2017-Jul-18 18:30N 40°43' W 074°03'0 0.0
2017-Jul-18 18:00N 40°43' W 074°03'0 0.2
2017-Jul-18 17:29N 40°43' W 074°02'4 8.9
2017-Jul-18 17:00N 40°38' W 074°03'14 0.7
2017-Jul-17 22:48N 40°25' W 074°02'0 0.3
2017-Jul-17 22:30N 40°25' W 074°02'1 1.2
2017-Jul-17 22:00N 40°25' W 074°01'4 5.3
2017-Jul-17 21:14N 40°28' W 073°57'101 4.2
2017-Jul-16 21:12N 39°02' W 075°06'2813.1
2017-Jul-16 19:02N 39°24' W 075°29'0 5.3
2017-Jul-16 19:00N 39°24' W 075°29'5 9.8
2017-Jul-16 18:30N 39°28' W 075°33'510.2
2017-Jul-16 18:00N 39°33' W 075°33'611.6
2017-Jul-16 17:30N 39°33' W 075°40'613.0
2017-Jul-16 17:00N 39°32' W 075°49'611.0
2017-Jul-16 16:30N 39°30' W 075°55'611.7
2017-Jul-16 15:58N 39°26' W 076°01'7 0.1
2017-Jul-14 14:22N 39°22' W 075°53'  

Dump ship's entire track history